Silver Wind — C6FG2 — position and weather

sailwx.info

Track history (hours):
 
Tides and Currents Weather Stations Pressure Air Temp Water Temp Dewpoint Dewpoint Depression Visibility Wind Speed Wind Dir Waves Ship Positions

Silver Wind

Operator: V Ships Leisure

Last reported at 2017-Nov-17 19:31 UTC. Time now 2017-Nov-19 14:14 UTC.
Position N 27°41' W 015°28'.

Length 156 m; draft 5.7 m.

Type: Passenger vessel. MMSI: 308814000.

Date/timePositionNaut miles runAvg speedWind from/ knotsBaromVisibWave heightAir tempDewpointWater temp
2017-Nov-17 19:31N 27°41' W 015°28'514.1
2017-Nov-17 19:12N 27°43' W 015°23'314.4
2017-Nov-17 18:59N 27°44' W 015°20'613.4
2017-Nov-17 18:30N 27°49' W 015°16'714.9
2017-Nov-17 18:00N 27°57' W 015°15'714.7
2017-Nov-17 17:30N 28°03' W 015°19'713.9
2017-Nov-17 17:00N 28°07' W 015°25'1 1.7
2017-Nov-17 16:25N 28°08' W 015°25'0 0.0
2017-Nov-17 15:55N 28°08' W 015°25'0 0.0
2017-Nov-17 15:25N 28°08' W 015°25'0 0.0
2017-Nov-17 14:58N 28°08' W 015°25'0 0.0
2017-Nov-17 14:28N 28°08' W 015°25'0 0.0
2017-Nov-17 13:58N 28°08' W 015°25'0 0.0
2017-Nov-17 13:25N 28°08' W 015°25'0 0.0
2017-Nov-17 12:58N 28°08' W 015°25'0 0.0
2017-Nov-17 12:25N 28°08' W 015°25'0 0.0
2017-Nov-17 11:55N 28°08' W 015°25'0 0.0
2017-Nov-17 11:28N 28°08' W 015°25'0 0.0
2017-Nov-17 10:58N 28°08' W 015°25'0 0.0
2017-Nov-17 10:28N 28°08' W 015°25'0 0.0
2017-Nov-17 09:58N 28°08' W 015°25'0 0.0
2017-Nov-17 09:28N 28°08' W 015°25'0 0.0
2017-Nov-17 08:58N 28°08' W 015°25'0 0.0
2017-Nov-17 08:28N 28°08' W 015°25'0 0.0
2017-Nov-17 07:53N 28°08' W 015°25'0 1.0
2017-Nov-17 07:30N 28°08' W 015°25'5 9.2
2017-Nov-17 07:00N 28°08' W 015°20'612.2
2017-Nov-17 06:30N 28°11' W 015°14'612.2
2017-Nov-17 06:00N 28°15' W 015°08'612.2
2017-Nov-17 05:30N 28°18' W 015°02'612.1
2017-Nov-17 05:00N 28°21' W 014°56'612.7
2017-Nov-17 04:30N 28°24' W 014°50'612.2
2017-Nov-17 04:00N 28°27' W 014°44'912.3
2017-Nov-17 03:16N 28°32' W 014°35'312.3
2017-Nov-17 02:59N 28°33' W 014°32'712.4
2017-Nov-17 02:25N 28°37' W 014°25'612.4
2017-Nov-17 01:56N 28°40' W 014°19'812.3
2017-Nov-17 01:18N 28°43' W 014°11'612.4
2017-Nov-17 00:49N 28°46' W 014°05'3110.1
2017-Nov-16 21:42N 28°58' W 013°32'0 0.0
2017-Nov-16 21:27N 28°58' W 013°32'0 0.0
2017-Nov-16 13:12N 28°58' W 013°32'0 0.0
2017-Nov-16 13:00N 28°58' W 013°32'0 0.0
2017-Nov-16 12:12N 28°58' W 013°32'0 0.0
2017-Nov-16 11:54N 28°58' W 013°32'0 0.0
2017-Nov-16 11:26N 28°58' W 013°32'1 1.5
2017-Nov-16 10:59N 28°57' W 013°31'612.8
2017-Nov-16 10:30N 28°59' W 013°25'714.3
2017-Nov-16 10:00N 29°02' W 013°17'814.7
2017-Nov-16 09:29N 29°05' W 013°09'  
2017-Nov-11 16:03N 37°20' W 000°53'115.6
2017-Nov-11 15:59N 37°21' W 000°52'715.5
2017-Nov-11 15:30N 37°26' W 000°45'815.4
2017-Nov-11 14:59N 37°31' W 000°38'715.1
2017-Nov-11 14:30N 37°36' W 000°31'715.0
2017-Nov-11 14:00N 37°42' W 000°26'914.9
2017-Nov-11 13:26N 37°50' W 000°20'22014.9
2017-Nov-10 22:42N 41°01' E 002°01'314.7
2017-Nov-10 22:30N 41°03' E 002°03'815.2
2017-Nov-10 22:00N 41°10' E 002°08'  
2017-Nov-08 16:56N 43°13' E 005°15'612.4
2017-Nov-08 16:27N 43°18' E 005°21'0 0.7
2017-Nov-08 15:55N 43°18' E 005°22'0 0.0
2017-Nov-08 15:22N 43°18' E 005°22'0 0.0
2017-Nov-08 14:52N 43°18' E 005°22'0 0.0
2017-Nov-08 14:22N 43°18' E 005°22'0 0.0
2017-Nov-08 13:58N 43°18' E 005°22'0 0.0
2017-Nov-08 13:28N 43°18' E 005°22'0 0.0
2017-Nov-08 12:52N 43°18' E 005°22'0 0.0
2017-Nov-08 12:22N 43°18' E 005°22'0 0.0
2017-Nov-08 11:58N 43°18' E 005°22'0 0.0
2017-Nov-08 11:28N 43°18' E 005°22'0 0.0
2017-Nov-08 10:46N 43°18' E 005°22'0 0.0
2017-Nov-08 10:28N 43°18' E 005°22'0 0.0
2017-Nov-08 09:55N 43°18' E 005°22'0 0.0
2017-Nov-08 07:46N 43°18' E 005°22'0 0.0
2017-Nov-08 07:28N 43°18' E 005°22'0 0.0
2017-Nov-08 06:58N 43°18' E 005°22'0 0.2
2017-Nov-08 06:30N 43°18' E 005°22'4 7.5
2017-Nov-08 06:00N 43°15' E 005°18'7311.8
2017-Nov-07 23:50N 43°17' E 006°58'515.3
2017-Nov-07 23:30N 43°20' E 007°03'714.9
2017-Nov-07 23:00N 43°26' E 007°09'814.9
2017-Nov-07 22:29N 43°31' E 007°17'815.0
2017-Nov-07 21:58N 43°37' E 007°24'  
Track history (hours):
 
Tides and Currents Weather Stations Pressure Air Temp Water Temp Dewpoint Dewpoint Depression Visibility Wind Speed Wind Dir Waves Ship Positions

Silver Wind

Operator: V Ships Leisure

Last reported at 2017-Nov-17 19:31 UTC. Time now 2017-Nov-19 14:14 UTC.
Position N 27°41' W 015°28'.

Length 156 m; draft 5.7 m.

Type: Passenger vessel. MMSI: 308814000.

Date/timePositionNaut miles runAvg speedWind from/ knotsBaromVisibWave heightAir tempDewpointWater temp
2017-Nov-17 19:31N 27°41' W 015°28'514.1
2017-Nov-17 19:12N 27°43' W 015°23'314.4
2017-Nov-17 18:59N 27°44' W 015°20'613.4
2017-Nov-17 18:30N 27°49' W 015°16'714.9
2017-Nov-17 18:00N 27°57' W 015°15'714.7
2017-Nov-17 17:30N 28°03' W 015°19'713.9
2017-Nov-17 17:00N 28°07' W 015°25'1 1.7
2017-Nov-17 16:25N 28°08' W 015°25'0 0.0
2017-Nov-17 15:55N 28°08' W 015°25'0 0.0
2017-Nov-17 15:25N 28°08' W 015°25'0 0.0
2017-Nov-17 14:58N 28°08' W 015°25'0 0.0
2017-Nov-17 14:28N 28°08' W 015°25'0 0.0
2017-Nov-17 13:58N 28°08' W 015°25'0 0.0
2017-Nov-17 13:25N 28°08' W 015°25'0 0.0
2017-Nov-17 12:58N 28°08' W 015°25'0 0.0
2017-Nov-17 12:25N 28°08' W 015°25'0 0.0
2017-Nov-17 11:55N 28°08' W 015°25'0 0.0
2017-Nov-17 11:28N 28°08' W 015°25'0 0.0
2017-Nov-17 10:58N 28°08' W 015°25'0 0.0
2017-Nov-17 10:28N 28°08' W 015°25'0 0.0
2017-Nov-17 09:58N 28°08' W 015°25'0 0.0
2017-Nov-17 09:28N 28°08' W 015°25'0 0.0
2017-Nov-17 08:58N 28°08' W 015°25'0 0.0
2017-Nov-17 08:28N 28°08' W 015°25'0 0.0
2017-Nov-17 07:53N 28°08' W 015°25'0 1.0
2017-Nov-17 07:30N 28°08' W 015°25'5 9.2
2017-Nov-17 07:00N 28°08' W 015°20'612.2
2017-Nov-17 06:30N 28°11' W 015°14'612.2
2017-Nov-17 06:00N 28°15' W 015°08'612.2
2017-Nov-17 05:30N 28°18' W 015°02'612.1
2017-Nov-17 05:00N 28°21' W 014°56'612.7
2017-Nov-17 04:30N 28°24' W 014°50'612.2
2017-Nov-17 04:00N 28°27' W 014°44'912.3
2017-Nov-17 03:16N 28°32' W 014°35'312.3
2017-Nov-17 02:59N 28°33' W 014°32'712.4
2017-Nov-17 02:25N 28°37' W 014°25'612.4
2017-Nov-17 01:56N 28°40' W 014°19'812.3
2017-Nov-17 01:18N 28°43' W 014°11'612.4
2017-Nov-17 00:49N 28°46' W 014°05'3110.1
2017-Nov-16 21:42N 28°58' W 013°32'0 0.0
2017-Nov-16 21:27N 28°58' W 013°32'0 0.0
2017-Nov-16 13:12N 28°58' W 013°32'0 0.0
2017-Nov-16 13:00N 28°58' W 013°32'0 0.0
2017-Nov-16 12:12N 28°58' W 013°32'0 0.0
2017-Nov-16 11:54N 28°58' W 013°32'0 0.0
2017-Nov-16 11:26N 28°58' W 013°32'1 1.5
2017-Nov-16 10:59N 28°57' W 013°31'612.8
2017-Nov-16 10:30N 28°59' W 013°25'714.3
2017-Nov-16 10:00N 29°02' W 013°17'814.7
2017-Nov-16 09:29N 29°05' W 013°09'  
2017-Nov-11 16:03N 37°20' W 000°53'115.6
2017-Nov-11 15:59N 37°21' W 000°52'715.5
2017-Nov-11 15:30N 37°26' W 000°45'815.4
2017-Nov-11 14:59N 37°31' W 000°38'715.1
2017-Nov-11 14:30N 37°36' W 000°31'715.0
2017-Nov-11 14:00N 37°42' W 000°26'914.9
2017-Nov-11 13:26N 37°50' W 000°20'22014.9
2017-Nov-10 22:42N 41°01' E 002°01'314.7
2017-Nov-10 22:30N 41°03' E 002°03'815.2
2017-Nov-10 22:00N 41°10' E 002°08'  
2017-Nov-08 16:56N 43°13' E 005°15'612.4
2017-Nov-08 16:27N 43°18' E 005°21'0 0.7
2017-Nov-08 15:55N 43°18' E 005°22'0 0.0
2017-Nov-08 15:22N 43°18' E 005°22'0 0.0
2017-Nov-08 14:52N 43°18' E 005°22'0 0.0
2017-Nov-08 14:22N 43°18' E 005°22'0 0.0
2017-Nov-08 13:58N 43°18' E 005°22'0 0.0
2017-Nov-08 13:28N 43°18' E 005°22'0 0.0
2017-Nov-08 12:52N 43°18' E 005°22'0 0.0
2017-Nov-08 12:22N 43°18' E 005°22'0 0.0
2017-Nov-08 11:58N 43°18' E 005°22'0 0.0
2017-Nov-08 11:28N 43°18' E 005°22'0 0.0
2017-Nov-08 10:46N 43°18' E 005°22'0 0.0
2017-Nov-08 10:28N 43°18' E 005°22'0 0.0
2017-Nov-08 09:55N 43°18' E 005°22'0 0.0
2017-Nov-08 07:46N 43°18' E 005°22'0 0.0
2017-Nov-08 07:28N 43°18' E 005°22'0 0.0
2017-Nov-08 06:58N 43°18' E 005°22'0 0.2
2017-Nov-08 06:30N 43°18' E 005°22'4 7.5
2017-Nov-08 06:00N 43°15' E 005°18'7311.8
2017-Nov-07 23:50N 43°17' E 006°58'515.3
2017-Nov-07 23:30N 43°20' E 007°03'714.9
2017-Nov-07 23:00N 43°26' E 007°09'814.9
2017-Nov-07 22:29N 43°31' E 007°17'815.0
2017-Nov-07 21:58N 43°37' E 007°24'  

Dump ship's entire track history